X  Close Metar Aviation Weather Data        KGAI Gaithersburg
Temperature
85°F Temperature
65°F Dewpoint
51% Humidity



Wind
8 MPH
13 KM/H
4 M/S
7 KTS



170°
S
Current Conditions

Mostly Cloudy Mostly Cloudy
Pressure 1020 (hPa) - 30.11 (inHg)
Visibility 10 (mile) - 16 (km)
Airport
Airport-code KGAI

Location: Gaithersburg
Distance: 11 (mi)

Metar:
METAR KGAI 241856Z AUTO 17007KT 150V210 10SM FEW049 BKN060 29/18 A3009 RMK AO2 SLP198 T02940183

Time: 07-24-2021 2:56 pm EDT